Saint Charles, Arkansas
Current Conditions -  °F | °C
As of 2:55 AM on Wednesday 26 Nov 2014 (Local Time) from KSGT Reporting Station
Clear Clear  
Wind Chill: 34°   Ceiling: Unl
Heat Index: 37°   Visibility: 10mi
Dew Point: 30°   Wind: 5mph
Humidity: 75%   Direction: 140°SE
Pressure: 30.15"   Gusts: NA
Location:  34.37°N, 91.14°W
Report Text: KSGT 260855Z AUTO 14004KT 10SM CLR 03/M01 A3015 RMK AO1 57007
Loading
Personal Weather Stations






























Interactive Weather Map New forecast layout! Learn more

10-Day Weather Forecast

Advertisements
Track Severe Weather on mobile